createdAt,value
2018-02-20T00:02:30.121Z,26.63
2018-02-20T00:07:13.466Z,26.90
2018-02-20T00:11:56.799Z,25.80
2018-02-20T00:16:40.189Z,27.13
2018-02-20T00:21:23.530Z,25.97
2018-02-20T00:26:07.683Z,26.23
2018-02-20T00:30:51.815Z,26.40
2018-02-20T00:35:35.191Z,29.63
2018-02-20T00:40:19.322Z,29.33
2018-02-20T00:45:02.722Z,28.73
2018-02-20T00:49:46.086Z,29.80
2018-02-20T00:54:29.414Z,29.00
2018-02-20T00:59:13.033Z,29.57
2018-02-20T01:03:57.122Z,28.23
2018-02-20T01:08:40.472Z,27.13
2018-02-20T01:13:23.826Z,28.57
2018-02-20T01:18:07.150Z,28.93
2018-02-20T01:22:50.482Z,31.33
2018-02-20T01:27:33.911Z,29.70
2018-02-20T01:32:17.298Z,32.40
2018-02-20T01:37:00.641Z,32.87
2018-02-20T01:41:43.974Z,32.67
2018-02-20T01:46:27.368Z,33.60
2018-02-20T01:51:11.461Z,33.90
2018-02-20T01:55:54.767Z,30.63
2018-02-20T02:00:38.140Z,32.33
2018-02-20T02:05:21.506Z,33.90
2018-02-20T02:10:04.996Z,31.20
2018-02-20T02:14:48.379Z,32.17
2018-02-20T02:19:31.703Z,34.70
2018-02-20T02:24:15.088Z,33.70
2018-02-20T02:28:58.433Z,32.53
2018-02-20T02:33:41.785Z,33.07
2018-02-20T02:38:25.151Z,34.67
2018-02-20T02:43:08.482Z,33.20
2018-02-20T02:47:51.853Z,32.17
2018-02-20T02:52:35.195Z,33.57
2018-02-20T02:57:18.519Z,31.30
2018-02-20T03:02:01.846Z,33.83
2018-02-20T03:06:45.209Z,33.43
2018-02-20T03:11:28.535Z,31.30
2018-02-20T03:16:12.719Z,32.40
2018-02-20T03:20:56.058Z,32.17
2018-02-20T03:25:39.416Z,29.33
2018-02-20T03:30:22.797Z,31.50
2018-02-20T03:35:06.194Z,31.63
2018-02-20T03:39:49.539Z,30.50
2018-02-20T03:44:32.903Z,31.67
2018-02-20T03:49:17.006Z,29.03
2018-02-20T03:54:00.351Z,29.40
2018-02-20T03:58:43.701Z,31.60
2018-02-20T04:03:27.103Z,29.47
2018-02-20T04:08:10.410Z,29.27
2018-02-20T04:12:54.723Z,30.87
2018-02-20T04:17:38.044Z,30.63
2018-02-20T04:22:22.184Z,31.53
2018-02-20T04:27:05.568Z,33.23
2018-02-20T04:31:48.856Z,33.63
2018-02-20T04:36:32.948Z,33.33
2018-02-20T04:41:16.262Z,32.50
2018-02-20T04:46:00.366Z,31.33
2018-02-20T04:50:43.706Z,31.10
2018-02-20T04:55:27.073Z,33.40
2018-02-20T05:00:10.398Z,32.43
2018-02-20T05:04:53.741Z,31.17
2018-02-20T05:09:37.097Z,32.87
2018-02-20T05:14:20.460Z,31.70
2018-02-20T05:19:04.602Z,31.70
2018-02-20T05:23:48.028Z,31.70
2018-02-20T05:28:31.725Z,29.80
2018-02-20T05:33:15.035Z,30.53
2018-02-20T05:37:58.349Z,29.80
2018-02-20T05:42:41.707Z,27.47
2018-02-20T05:47:25.041Z,27.73
2018-02-20T05:52:08.380Z,28.60
2018-02-20T05:56:51.715Z,27.07
2018-02-20T06:01:35.051Z,28.43
2018-02-20T06:06:18.459Z,30.90
2018-02-20T06:11:02.508Z,31.57
2018-02-20T06:15:45.872Z,33.93
2018-02-20T06:20:29.211Z,33.93
2018-02-20T06:25:12.576Z,35.00
2018-02-20T06:29:56.738Z,33.43
2018-02-20T06:34:40.074Z,35.73
2018-02-20T06:39:23.657Z,33.00
2018-02-20T06:44:07.005Z,35.50
2018-02-20T06:48:50.414Z,33.80
2018-02-20T06:53:33.789Z,34.67
2018-02-20T06:58:17.196Z,38.07
2018-02-20T07:03:00.574Z,34.07
2018-02-20T07:07:44.801Z,36.90
2018-02-20T07:12:28.961Z,38.07
2018-02-20T07:17:12.360Z,35.37
2018-02-20T07:21:55.752Z,35.57
2018-02-20T07:31:31.584Z,34.30
2018-02-20T07:36:15.842Z,34.77
2018-02-20T07:40:59.222Z,33.17
2018-02-20T07:45:42.829Z,33.50
2018-02-20T07:50:29.207Z,31.87
2018-02-20T07:55:13.676Z,31.77
2018-02-20T07:59:57.096Z,32.63
2018-02-20T08:04:40.461Z,33.63
2018-02-20T08:09:23.792Z,33.47
2018-02-20T08:19:33.436Z,33.00
2018-02-20T08:24:16.803Z,31.63
2018-02-20T08:29:00.215Z,30.07
2018-02-20T08:33:43.511Z,31.67
2018-02-20T08:38:27.154Z,31.70
2018-02-20T08:43:10.626Z,31.27
2018-02-20T08:47:54.026Z,31.30
2018-02-20T08:52:37.419Z,30.93
2018-02-20T08:57:30.737Z,32.43
2018-02-20T09:02:15.716Z,31.00
2018-02-20T09:07:01.258Z,29.73
2018-02-20T09:11:45.567Z,30.97
2018-02-20T09:16:28.901Z,32.67
2018-02-20T09:21:12.743Z,32.07
2018-02-20T09:25:56.069Z,33.33
2018-02-20T09:30:39.414Z,31.47
2018-02-20T09:35:22.817Z,28.87
2018-02-20T09:40:06.200Z,28.37
2018-02-20T09:44:49.531Z,29.30
2018-02-20T09:49:32.930Z,37.40
2018-02-20T09:54:17.019Z,30.17
2018-02-20T09:59:00.388Z,29.27
2018-02-20T10:03:44.025Z,30.17
2018-02-20T10:08:27.397Z,28.73
2018-02-20T10:13:16.348Z,26.87
2018-02-20T10:17:59.724Z,25.67
2018-02-20T10:22:43.339Z,24.70
2018-02-20T10:27:28.036Z,22.00
2018-02-20T10:32:16.349Z,21.17
2018-02-20T10:36:59.817Z,20.33
2018-02-20T10:41:43.143Z,20.80
2018-02-20T10:46:26.581Z,21.10
2018-02-20T10:51:09.957Z,20.33
2018-02-20T10:55:55.196Z,20.33
2018-02-20T11:00:39.422Z,20.33
2018-02-20T11:05:27.807Z,20.10
2018-02-20T11:10:11.440Z,19.37
2018-02-20T11:14:56.009Z,18.53
2018-02-20T11:19:40.147Z,17.90
2018-02-20T11:24:24.242Z,17.83
2018-02-20T11:29:07.655Z,16.60
2018-02-20T11:33:51.043Z,17.50
2018-02-20T11:38:34.687Z,18.97
2018-02-20T11:43:18.091Z,16.17
2018-02-20T11:48:01.502Z,16.20
2018-02-20T11:52:44.836Z,16.77
2018-02-20T11:57:33.009Z,14.83
2018-02-20T12:02:20.783Z,15.83
2018-02-20T12:07:06.640Z,14.17
2018-02-20T12:12:04.626Z,13.70
2018-02-20T12:16:48.207Z,13.67
2018-02-20T12:21:31.632Z,13.00
2018-02-20T12:26:15.026Z,13.83
2018-02-20T12:30:58.408Z,14.43
2018-02-20T12:35:41.998Z,14.47
2018-02-20T12:40:25.319Z,13.43
2018-02-20T12:45:09.418Z,14.47
2018-02-20T12:49:52.769Z,14.10
2018-02-20T12:54:36.092Z,13.27
2018-02-20T12:59:19.539Z,14.03
2018-02-20T13:04:02.871Z,14.57
2018-02-20T13:08:46.234Z,12.53
2018-02-20T13:13:29.847Z,14.00
2018-02-20T13:18:13.255Z,12.30
2018-02-20T13:22:56.681Z,12.77
2018-02-20T13:27:40.139Z,13.10
2018-02-20T13:32:23.452Z,14.90
2018-02-20T13:37:07.961Z,15.30
2018-02-20T13:41:51.361Z,19.20
2018-02-20T13:46:35.135Z,18.87
2018-02-20T13:51:19.278Z,20.87
2018-02-20T13:56:02.615Z,21.63
2018-02-20T14:00:47.398Z,20.90
2018-02-20T14:05:31.614Z,20.40
2018-02-20T14:10:22.778Z,22.40
2018-02-20T14:15:06.179Z,22.73
2018-02-20T14:19:50.803Z,27.75
2018-02-20T14:24:34.136Z,22.17
2018-02-20T14:29:17.495Z,21.93
2018-02-20T14:34:00.835Z,20.30
2018-02-20T14:38:44.168Z,21.63
2018-02-20T14:43:27.612Z,25.20
2018-02-20T14:48:11.056Z,27.03
2018-02-20T14:52:55.197Z,28.07
2018-02-20T14:57:38.512Z,29.30
2018-02-20T15:02:21.957Z,30.73
2018-02-20T15:07:05.367Z,29.57
2018-02-20T15:11:48.804Z,30.83
2018-02-20T15:16:32.164Z,29.10
2018-02-20T15:21:15.545Z,30.07
2018-02-20T15:25:58.896Z,32.47
2018-02-20T15:30:42.226Z,32.27
2018-02-20T15:35:25.537Z,34.07
2018-02-20T15:40:08.901Z,33.57
2018-02-20T15:44:52.234Z,35.03
2018-02-20T15:49:38.912Z,38.00
2018-02-20T15:54:26.192Z,36.87
2018-02-20T15:59:12.686Z,36.03
2018-02-20T16:03:59.823Z,36.93
2018-02-20T16:08:43.293Z,38.27
2018-02-20T16:13:26.637Z,37.77
2018-02-20T16:18:11.024Z,37.10
2018-02-20T16:22:55.193Z,37.73
2018-02-20T16:27:39.293Z,37.13
2018-02-20T16:32:23.004Z,37.20
2018-02-20T16:37:06.322Z,37.03
2018-02-20T16:41:50.438Z,38.73
2018-02-20T16:46:33.834Z,40.17
2018-02-20T16:56:54.207Z,40.90
2018-02-20T17:07:07.190Z,37.47
2018-02-20T17:11:51.597Z,39.63
2018-02-20T17:21:53.584Z,52.92
2018-02-20T17:26:37.753Z,37.23
2018-02-20T17:31:21.959Z,37.63
2018-02-20T17:36:07.651Z,36.83
2018-02-20T17:40:54.004Z,37.63
2018-02-20T17:50:27.898Z,32.87
2018-02-20T17:55:11.623Z,32.17
2018-02-20T17:59:55.392Z,31.10
2018-02-20T18:04:39.437Z,27.63
2018-02-20T18:09:22.972Z,28.10
2018-02-20T18:14:06.510Z,29.67
2018-02-20T18:18:50.696Z,28.00
2018-02-20T18:23:34.352Z,27.40
2018-02-20T18:28:17.792Z,27.87
2018-02-20T18:33:01.224Z,26.53
2018-02-20T18:37:45.448Z,27.73
2018-02-20T18:42:28.880Z,27.37
2018-02-20T18:52:07.561Z,27.60
2018-02-20T18:56:51.253Z,38.27
2018-02-20T19:01:36.379Z,29.90
2018-02-20T19:06:20.883Z,29.73
2018-02-20T19:11:08.891Z,28.10
2018-02-20T19:15:52.364Z,27.73
2018-02-20T19:20:36.527Z,27.73
2018-02-20T19:25:20.633Z,28.43
2018-02-20T19:30:04.038Z,29.13
2018-02-20T19:34:47.472Z,30.10
2018-02-20T19:39:32.168Z,27.10
2018-02-20T19:44:15.630Z,28.80
2018-02-20T19:48:58.948Z,27.20
2018-02-20T19:53:42.607Z,27.97
2018-02-20T19:58:26.108Z,28.10
2018-02-20T20:03:09.532Z,29.57
2018-02-20T20:07:52.990Z,28.73
2018-02-20T20:12:36.517Z,29.33
2018-02-20T20:17:20.011Z,29.30
2018-02-20T20:22:03.411Z,30.00
2018-02-20T20:26:47.951Z,31.83
2018-02-20T20:31:31.338Z,29.00
2018-02-20T20:36:15.163Z,32.60
2018-02-20T20:40:58.621Z,31.57
2018-02-20T20:45:42.280Z,33.30
2018-02-20T20:50:25.700Z,31.67
2018-02-20T20:55:09.266Z,31.20
2018-02-20T20:59:52.720Z,32.33
2018-02-20T21:04:36.925Z,34.23
2018-02-20T21:09:20.287Z,34.97
2018-02-20T21:14:03.650Z,34.90
2018-02-20T21:18:47.039Z,32.10
2018-02-20T21:23:30.411Z,33.37
2018-02-20T21:28:13.775Z,32.50
2018-02-20T21:32:57.322Z,34.17
2018-02-20T21:37:40.741Z,33.80
2018-02-20T21:42:24.362Z,34.13
2018-02-20T21:47:07.852Z,35.60
2018-02-20T21:51:52.098Z,32.43
2018-02-20T21:56:35.431Z,32.57
2018-02-20T22:01:18.753Z,33.27
2018-02-20T22:06:02.880Z,32.23
2018-02-20T22:10:46.211Z,33.13
2018-02-20T22:15:30.377Z,33.27
2018-02-20T22:20:13.802Z,30.17
2018-02-20T22:24:57.188Z,31.77
2018-02-20T22:29:40.540Z,32.10
2018-02-20T22:34:23.882Z,31.93
2018-02-20T22:39:07.396Z,33.43
2018-02-20T22:43:50.741Z,34.40
2018-02-20T22:48:34.087Z,33.33
2018-02-20T22:53:17.443Z,31.83
2018-02-20T22:58:00.770Z,32.57
2018-02-20T23:02:44.095Z,32.97
2018-02-20T23:07:27.462Z,32.60
2018-02-20T23:12:11.671Z,29.37
2018-02-20T23:16:55.796Z,28.87
2018-02-20T23:21:39.215Z,30.30
2018-02-20T23:26:22.556Z,29.43
2018-02-20T23:31:06.239Z,33.47
2018-02-20T23:35:49.602Z,29.93
2018-02-20T23:40:32.924Z,29.47
2018-02-20T23:45:16.271Z,28.60
2018-02-20T23:49:59.619Z,32.53
2018-02-20T23:54:43.717Z,29.53
2018-02-20T23:59:27.133Z,29.97
